Time;durP1;ratioP1;P1;durP2;ratioP2;P2;SDS_P1;SDS_P2;PMS_P1;PMS_P2;Temp;Humidity;BMP_temperature;BMP_pressure;BME280_temperature;BME280_humidity;BME280_pressure;Samples;Min_cycle;Max_cycle;Signal;HPM_P1;HPM_P2
2021/05/06 00:00:54;;;;;;;6.47;5.88;;;5.90;99.90;;;;;;4982882;28;20195;-78
2021/05/06 00:32:39;;;;;;;7.25;6.20;;;5.40;99.90;;;;;;4985298;28;20204;-78
2021/05/06 00:35:07;;;;;;;8.27;6.28;;;5.40;99.90;;;;;;4992500;28;20237;-78
2021/05/06 00:37:42;;;;;;;6.80;6.20;;;5.40;99.90;;;;;;4991792;28;20226;-78
2021/05/06 00:40:11;;;;;;;8.18;7.40;;;5.40;99.90;;;;;;4968305;28;20192;-78
2021/05/06 00:42:49;;;;;;;8.10;6.47;;;5.50;99.90;;;;;;4989202;28;20190;-78
2021/05/06 00:56:37;;;;;;;5.40;4.70;;;5.70;99.90;;;;;;4980214;28;20232;-78
2021/05/06 01:01:44;;;;;;;3.63;2.80;;;5.90;99.90;;;;;;4978589;28;20245;-78
2021/05/06 01:07:17;;;;;;;3.60;2.10;;;6.00;99.90;;;;;;4986203;28;20254;-78
2021/05/06 01:12:35;;;;;;;3.00;1.30;;;6.40;99.90;;;;;;4975381;28;20194;-78
2021/05/06 01:15:03;;;;;;;4.93;1.90;;;6.60;99.90;;;;;;4979178;28;20290;-78
2021/05/06 01:17:30;;;;;;;3.25;1.30;;;6.60;99.90;;;;;;4956939;28;20262;-78
2021/05/06 01:19:57;;;;;;;3.13;1.73;;;6.60;99.90;;;;;;4977754;28;20717;-78
2021/05/06 01:22:23;;;;;;;3.55;1.40;;;6.70;99.90;;;;;;4974520;28;20285;-78
2021/05/06 01:24:55;;;;;;;5.68;1.30;;;6.80;99.90;;;;;;4976272;28;20237;-78
2021/05/06 01:30:14;;;;;;;5.20;1.25;;;6.80;99.90;;;;;;4988510;28;20268;-78
2021/05/06 01:32:48;;;;;;;2.17;1.15;;;6.90;99.90;;;;;;4979496;28;20268;-78
2021/05/06 01:35:25;;;;;;;2.88;1.42;;;6.90;99.90;;;;;;4974606;28;20302;-78
2021/05/06 01:38:16;;;;;;;6.07;1.30;;;6.90;99.90;;;;;;4988999;28;20224;-78
2021/05/06 01:45:58;;;;;;;2.70;1.48;;;6.90;99.90;;;;;;4975898;28;20234;-78
2021/05/06 01:59:40;;;;;;;3.28;1.70;;;6.90;99.90;;;;;;4974867;28;20268;-78
2021/05/06 02:02:08;;;;;;;5.15;2.10;;;6.80;99.90;;;;;;4973001;28;20289;-78
2021/05/06 02:04:35;;;;;;;4.97;2.00;;;6.90;99.90;;;;;;4962217;28;20306;-78
2021/05/06 02:07:03;;;;;;;4.18;1.35;;;6.90;99.90;;;;;;4991878;28;20202;-78
2021/05/06 02:09:39;;;;;;;2.65;1.38;;;6.90;99.90;;;;;;4955940;28;20309;-78
2021/05/06 02:12:09;;;;;;;4.53;1.80;;;6.90;99.90;;;;;;4985888;28;20653;-78
2021/05/06 02:14:49;;;;;;;7.07;2.25;;;6.90;99.90;;;;;;4974919;28;20611;-78
2021/05/06 02:17:18;;;;;;;1.50;1.33;;;6.90;99.90;;;;;;4991260;28;20208;-78
2021/05/06 02:19:48;;;;;;;4.60;1.52;;;6.90;99.90;;;;;;4989098;28;20242;-78
2021/05/06 02:22:20;;;;;;;2.08;1.40;;;6.90;99.90;;;;;;4965182;28;20187;-78
2021/05/06 02:24:48;;;;;;;2.67;2.00;;;6.90;99.90;;;;;;4956125;28;20246;-78
2021/05/06 02:27:15;;;;;;;3.60;1.42;;;6.90;99.90;;;;;;4979402;28;20245;-78
2021/05/06 02:29:42;;;;;;;4.15;2.13;;;6.90;99.90;;;;;;4972685;28;20235;-78
2021/05/06 02:32:08;;;;;;;7.13;1.95;;;6.90;99.90;;;;;;4957005;28;20191;-78
2021/05/06 02:34:35;;;;;;;4.82;1.80;;;6.90;99.90;;;;;;4990141;28;20705;-78
2021/05/06 02:37:02;;;;;;;4.72;1.58;;;6.90;99.90;;;;;;4983019;28;20258;-78
2021/05/06 02:39:28;;;;;;;2.22;1.40;;;6.80;99.90;;;;;;4979737;28;20214;-78
2021/05/06 02:41:55;;;;;;;2.15;1.25;;;6.90;99.90;;;;;;4975475;28;20214;-78
2021/05/06 02:44:21;;;;;;;3.83;1.70;;;6.90;99.90;;;;;;4986784;28;20219;-78
2021/05/06 02:46:48;;;;;;;4.40;1.80;;;6.90;99.90;;;;;;4955608;28;20215;-78
2021/05/06 02:49:14;;;;;;;2.50;1.02;;;6.90;99.90;;;;;;4975221;28;20723;-78
2021/05/06 02:51:48;;;;;;;2.63;1.48;;;7.00;99.90;;;;;;4980232;28;20187;-78
2021/05/06 02:54:15;;;;;;;4.30;1.70;;;7.10;99.90;;;;;;4972389;28;20230;-78
2021/05/06 02:56:53;;;;;;;3.78;1.55;;;7.00;99.90;;;;;;4983188;28;20252;-78
2021/05/06 03:04:45;;;;;;;9.32;1.95;;;7.00;99.90;;;;;;4996131;28;20222;-78
2021/05/06 03:07:14;;;;;;;2.75;1.50;;;7.00;99.90;;;;;;4985899;28;20226;-78
2021/05/06 03:22:45;;;;;;;4.95;1.85;;;6.90;99.90;;;;;;4958961;28;20219;-78
2021/05/06 03:25:15;;;;;;;4.43;1.88;;;6.90;99.90;;;;;;4993602;28;20294;-78
2021/05/06 03:27:45;;;;;;;3.33;2.10;;;7.00;99.90;;;;;;4993295;28;20232;-78
2021/05/06 04:16:40;;;;;;;6.97;1.85;;;7.20;99.90;;;;;;4924023;28;20296;-78
2021/05/06 04:21:29;;;;;;;2.80;2.25;;;7.20;99.90;;;;;;4979561;28;20633;-78
2021/05/06 04:27:45;;;;;;;4.28;2.10;;;7.20;99.90;;;;;;4990300;28;20245;-78
2021/05/06 04:36:06;;;;;;;2.65;1.92;;;7.20;99.90;;;;;;4938718;28;20220;-78
2021/05/06 04:38:32;;;;;;;2.05;1.90;;;7.20;99.90;;;;;;4993114;28;20213;-78
2021/05/06 04:41:13;;;;;;;2.53;1.90;;;7.20;99.90;;;;;;4993329;28;20187;-78
2021/05/06 04:54:40;;;;;;;7.03;2.10;;;7.20;99.90;;;;;;4974267;28;20254;-78
2021/05/06 05:05:23;;;;;;;3.60;2.20;;;7.20;99.90;;;;;;4964646;28;20191;-78
2021/05/06 05:07:59;;;;;;;4.97;2.30;;;7.30;99.90;;;;;;4974151;28;20247;-78
2021/05/06 05:23:59;;;;;;;4.45;2.60;;;7.20;99.90;;;;;;4982722;28;20755;-78
2021/05/06 05:26:26;;;;;;;3.85;2.47;;;7.30;99.90;;;;;;4964056;28;20269;-78
2021/05/06 05:28:53;;;;;;;4.78;2.70;;;7.30;99.90;;;;;;4973278;28;20218;-78
2021/05/06 05:31:19;;;;;;;3.60;2.85;;;7.30;99.90;;;;;;4982270;28;20186;-78
2021/05/06 05:33:49;;;;;;;6.18;2.92;;;7.40;99.90;;;;;;4980449;28;20264;-78
2021/05/06 05:36:24;;;;;;;11.43;3.88;;;7.40;99.90;;;;;;4974477;28;20648;-78
2021/05/06 05:39:10;;;;;;;4.38;3.50;;;7.50;99.90;;;;;;4975280;28;20291;-79
2021/05/06 05:54:50;;;;;;;3.92;3.00;;;8.00;99.90;;;;;;4966898;28;20297;-78
2021/05/06 05:57:16;;;;;;;4.72;2.33;;;8.10;99.90;;;;;;4969440;28;20202;-78
2021/05/06 05:59:44;;;;;;;5.00;2.75;;;8.20;99.90;;;;;;4979207;28;20219;-78
2021/05/06 06:02:10;;;;;;;3.53;2.58;;;8.40;99.90;;;;;;4973875;28;20653;-78
2021/05/06 06:04:37;;;;;;;3.00;2.53;;;8.60;99.90;;;;;;4982468;28;20222;-78
2021/05/06 06:07:03;;;;;;;3.38;2.40;;;8.70;99.90;;;;;;4992316;28;20213;-78
2021/05/06 06:09:33;;;;;;;3.90;1.88;;;8.70;99.90;;;;;;4975040;28;20230;-79
2021/05/06 06:11:59;;;;;;;2.30;2.10;;;8.70;99.90;;;;;;4978504;28;20671;-78
2021/05/06 06:14:48;;;;;;;3.63;2.13;;;8.80;99.90;;;;;;4965265;28;20257;-78
2021/05/06 06:17:14;;;;;;;6.25;2.30;;;8.90;99.90;;;;;;4968244;28;20223;-78
2021/05/06 06:19:48;;;;;;;3.38;2.10;;;9.00;99.90;;;;;;4965383;28;20636;-78
2021/05/06 06:22:21;;;;;;;5.00;2.65;;;9.00;99.90;;;;;;4977883;28;20523;-78
2021/05/06 06:24:48;;;;;;;4.20;2.03;;;9.20;99.90;;;;;;4958177;28;20229;-78
2021/05/06 06:27:16;;;;;;;3.90;2.35;;;9.40;99.80;;;;;;4991530;28;20218;-78
2021/05/06 06:29:44;;;;;;;6.82;2.10;;;9.40;99.10;;;;;;4974102;28;20254;-78
2021/05/06 06:32:14;;;;;;;3.88;1.90;;;9.60;98.60;;;;;;4992148;28;20179;-78
2021/05/06 06:34:40;;;;;;;5.60;2.40;;;9.80;98.20;;;;;;4988387;28;20254;-78
2021/05/06 06:37:10;;;;;;;2.67;1.97;;;10.10;97.00;;;;;;4992508;28;20230;-78
2021/05/06 06:39:40;;;;;;;5.03;2.27;;;10.20;96.90;;;;;;4989963;28;20919;-78
2021/05/06 06:42:10;;;;;;;4.70;2.70;;;10.40;95.70;;;;;;4969165;28;20460;-78
2021/05/06 06:44:38;;;;;;;5.00;2.87;;;10.70;93.90;;;;;;4976836;28;20478;-78
2021/05/06 06:47:06;;;;;;;2.80;2.00;;;10.70;93.90;;;;;;4965019;28;20529;-78
2021/05/06 06:49:41;;;;;;;2.87;1.97;;;10.70;93.90;;;;;;4964738;28;20984;-78
2021/05/06 06:52:10;;;;;;;2.87;2.07;;;10.80;93.90;;;;;;4958475;28;20595;-78
2021/05/06 06:54:37;;;;;;;4.38;2.10;;;11.00;93.30;;;;;;4983534;28;20514;-78
2021/05/06 06:57:05;;;;;;;3.60;2.37;;;10.90;93.50;;;;;;4984854;28;20202;-78
2021/05/06 06:59:31;;;;;;;4.68;1.77;;;10.90;93.10;;;;;;4983891;28;20466;-78
2021/05/06 07:01:58;;;;;;;3.47;2.40;;;11.00;92.60;;;;;;4974263;28;20252;-78
2021/05/06 07:04:25;;;;;;;2.78;2.15;;;11.00;92.20;;;;;;4964437;28;20465;-78
2021/05/06 07:06:51;;;;;;;16.53;3.37;;;10.90;91.80;;;;;;4976208;28;20250;-78
2021/05/06 07:09:18;;;;;;;3.10;2.07;;;10.90;91.60;;;;;;4981220;28;20471;-78
2021/05/06 07:11:44;;;;;;;5.07;2.20;;;11.10;91.80;;;;;;4982755;28;20447;-78
2021/05/06 07:14:11;;;;;;;5.73;2.10;;;11.00;90.90;;;;;;4990215;28;21022;-78
2021/05/06 07:16:37;;;;;;;2.40;1.85;;;10.90;91.50;;;;;;4966647;28;20790;-78
2021/05/06 07:19:07;;;;;;;2.00;1.65;;;10.80;91.20;;;;;;4989731;28;20634;-78
2021/05/06 07:21:34;;;;;;;3.08;1.60;;;10.60;91.40;;;;;;4992244;28;20307;-78
2021/05/06 07:24:01;;;;;;;4.35;2.00;;;10.40;91.50;;;;;;4986905;28;20220;-78
2021/05/06 07:26:31;;;;;;;2.92;2.00;;;10.30;91.40;;;;;;4957389;28;20210;-78
2021/05/06 07:29:00;;;;;;;2.22;1.70;;;10.30;92.20;;;;;;4967191;28;20219;-78
2021/05/06 07:31:28;;;;;;;3.75;2.00;;;10.30;91.40;;;;;;4955314;28;20280;-78
2021/05/06 07:33:58;;;;;;;2.20;1.73;;;10.20;91.40;;;;;;4955330;28;20227;-78
2021/05/06 07:36:30;;;;;;;4.00;1.80;;;10.00;92.30;;;;;;4948481;28;20226;-78
2021/05/06 07:38:59;;;;;;;3.38;1.77;;;10.00;92.50;;;;;;4983290;28;20240;-78
2021/05/06 07:41:28;;;;;;;2.70;2.00;;;10.00;92.00;;;;;;4966002;28;20202;-78
2021/05/06 07:43:57;;;;;;;2.35;2.13;;;10.00;92.70;;;;;;4990841;28;20597;-78
2021/05/06 07:46:28;;;;;;;5.57;2.33;;;10.10;93.40;;;;;;4988089;28;20642;-78
2021/05/06 07:48:57;;;;;;;3.47;1.95;;;10.30;93.00;;;;;;4992664;28;20293;-78
2021/05/06 07:51:30;;;;;;;3.08;2.00;;;10.50;92.00;;;;;;4990719;28;20183;-78
2021/05/06 07:54:06;;;;;;;1.90;1.75;;;10.60;91.20;;;;;;4973303;28;20233;-78
2021/05/06 07:56:40;;;;;;;4.40;1.92;;;10.60;90.70;;;;;;4990227;28;20217;-78
2021/05/06 07:59:07;;;;;;;4.85;2.03;;;10.80;90.80;;;;;;4973884;28;20685;-78
2021/05/06 08:01:33;;;;;;;3.70;2.63;;;10.90;91.00;;;;;;4991942;28;20190;-78
2021/05/06 08:04:02;;;;;;;1.85;1.75;;;11.20;89.10;;;;;;4972987;28;20216;-78
2021/05/06 08:06:29;;;;;;;3.90;2.40;;;11.30;88.00;;;;;;4994167;28;20697;-78
2021/05/06 08:08:55;;;;;;;2.78;2.05;;;11.30;86.10;;;;;;4991734;28;20484;-78
2021/05/06 08:11:22;;;;;;;1.90;1.80;;;11.30;86.50;;;;;;4982920;28;20184;-79
2021/05/06 08:13:49;;;;;;;5.70;2.00;;;11.40;83.40;;;;;;4994060;28;20579;-78
2021/05/06 08:16:15;;;;;;;3.43;2.00;;;11.40;82.60;;;;;;4995115;28;20714;-78
2021/05/06 08:18:42;;;;;;;3.40;1.73;;;11.60;81.80;;;;;;4994073;28;20522;-78
2021/05/06 08:21:08;;;;;;;7.77;2.20;;;11.70;83.70;;;;;;4982902;28;20442;-78
2021/05/06 08:23:35;;;;;;;3.70;1.80;;;11.80;77.90;;;;;;4993304;28;21041;-78
2021/05/06 08:26:02;;;;;;;9.00;2.80;;;11.80;77.30;;;;;;4964590;28;20493;-78
2021/05/06 08:28:48;;;;;;;2.20;1.47;;;11.70;75.70;;;;;;4957650;28;20462;-78
2021/05/06 08:31:15;;;;;;;1.93;1.57;;;11.70;76.50;;;;;;4974520;28;20465;-78
2021/05/06 08:33:41;;;;;;;3.40;2.03;;;11.80;76.90;;;;;;4994205;28;20975;-78
2021/05/06 08:36:08;;;;;;;1.97;1.77;;;11.80;76.00;;;;;;4990797;28;20485;-78
2021/05/06 08:38:35;;;;;;;2.93;1.57;;;11.80;76.90;;;;;;4979913;28;20501;-78
2021/05/06 08:41:02;;;;;;;3.10;1.33;;;11.80;76.00;;;;;;4985627;28;20438;-78
2021/05/06 08:43:35;;;;;;;2.67;1.40;;;11.70;77.30;;;;;;4976631;28;20539;-79
2021/05/06 08:46:02;;;;;;;4.37;1.77;;;11.80;72.40;;;;;;4994405;28;20448;-78
2021/05/06 08:48:31;;;;;;;3.40;1.60;;;12.00;69.10;;;;;;4981088;28;20570;-78
2021/05/06 08:51:07;;;;;;;2.80;1.50;;;12.10;71.90;;;;;;4969587;28;20445;-78
2021/05/06 08:53:34;;;;;;;4.73;1.40;;;12.40;67.80;;;;;;4976062;28;20539;-78
2021/05/06 08:56:01;;;;;;;1.63;1.23;;;12.30;68.80;;;;;;4988705;28;20473;-78
2021/05/06 08:58:27;;;;;;;3.17;1.47;;;12.40;67.30;;;;;;4976031;28;20597;-78
2021/05/06 09:00:56;;;;;;;2.13;1.50;;;12.50;68.30;;;;;;4994633;28;20553;-79
2021/05/06 09:03:25;;;;;;;3.23;1.60;;;12.50;67.50;;;;;;4973476;28;20473;-78
2021/05/06 09:06:11;;;;;;;1.53;1.43;;;12.60;64.30;;;;;;4985025;28;20470;-78
2021/05/06 09:08:43;;;;;;;1.37;1.00;;;12.60;62.20;;;;;;4974623;28;20505;-78
2021/05/06 09:11:12;;;;;;;2.50;1.33;;;12.70;62.30;;;;;;4975742;28;20509;-78
2021/05/06 09:13:39;;;;;;;3.20;1.37;;;12.70;64.10;;;;;;4973229;28;20554;-78
2021/05/06 09:16:06;;;;;;;2.30;1.60;;;12.70;60.80;;;;;;4956100;28;20981;-78
2021/05/06 09:18:37;;;;;;;2.03;1.60;;;12.80;61.20;;;;;;4988307;28;20469;-78
2021/05/06 09:21:06;;;;;;;2.13;1.00;;;12.80;62.10;;;;;;4992107;28;20503;-78
2021/05/06 09:23:34;;;;;;;2.30;1.00;;;13.00;59.70;;;;;;4980821;28;20489;-78
2021/05/06 09:26:05;;;;;;;2.50;1.43;;;13.00;57.30;;;;;;4977837;28;20483;-78
2021/05/06 09:28:35;;;;;;;5.37;1.30;;;13.00;57.40;;;;;;4956597;28;20470;-78
2021/05/06 09:31:05;;;;;;;1.63;1.30;;;13.10;61.20;;;;;;4975376;28;20932;-78
2021/05/06 09:33:40;;;;;;;1.90;1.70;;;;;;;;;;4959648;28;20473;-78
2021/05/06 09:36:42;;;;;;;4.13;1.40;;;13.30;56.90;;;;;;4973832;28;20576;-78
2021/05/06 09:39:12;;;;;;;2.40;0.90;;;13.40;57.80;;;;;;4968001;28;20614;-78
2021/05/06 09:41:39;;;;;;;3.70;1.30;;;13.80;54.70;;;;;;4989838;28;20450;-78
2021/05/06 09:44:14;;;;;;;3.10;1.20;;;13.80;56.00;;;;;;4975399;28;20512;-78
2021/05/06 09:46:59;;;;;;;3.90;1.37;;;13.90;54.10;;;;;;4974632;28;20955;-78
2021/05/06 09:49:26;;;;;;;2.03;1.10;;;13.80;54.60;;;;;;4961822;28;20480;-79
2021/05/06 09:51:59;;;;;;;1.90;1.20;;;13.80;51.00;;;;;;4970319;28;20447;-78
2021/05/06 09:54:31;;;;;;;3.03;1.00;;;14.00;51.20;;;;;;4979279;28;20509;-78
2021/05/06 09:57:05;;;;;;;2.23;1.50;;;14.00;54.40;;;;;;4991941;28;20509;-78
2021/05/06 09:59:36;;;;;;;2.30;1.53;;;14.00;53.70;;;;;;4987790;28;20470;-78
2021/05/06 10:02:14;;;;;;;2.73;1.40;;;14.00;54.30;;;;;;4973882;28;20457;-78
2021/05/06 10:04:44;;;;;;;2.60;1.33;;;13.90;54.90;;;;;;4979589;28;20995;-79
2021/05/06 10:07:16;;;;;;;1.40;1.30;;;13.80;54.20;;;;;;4986653;28;20450;-78
2021/05/06 10:09:58;;;;;;;1.53;1.20;;;13.80;54.80;;;;;;4992736;28;20477;-78
2021/05/06 10:12:34;;;;;;;2.40;1.17;;;13.70;49.80;;;;;;4968567;28;20877;-78
2021/05/06 10:15:06;;;;;;;3.07;1.20;;;13.70;50.30;;;;;;4978119;28;20469;-78
2021/05/06 10:17:33;;;;;;;2.63;1.50;;;13.80;51.70;;;;;;4975317;28;20977;-78
2021/05/06 10:19:59;;;;;;;1.50;1.40;;;13.90;51.40;;;;;;4990921;28;20441;-78
2021/05/06 10:22:29;;;;;;;2.80;1.40;;;13.70;51.30;;;;;;4992152;28;20432;-77
2021/05/06 10:24:57;;;;;;;1.43;1.20;;;13.60;52.40;;;;;;4972488;28;20510;-78
2021/05/06 10:27:27;;;;;;;3.50;1.40;;;13.70;52.10;;;;;;4955427;28;20520;-78
2021/05/06 10:29:57;;;;;;;1.80;1.17;;;13.80;51.80;;;;;;4990851;28;20438;-78
2021/05/06 10:32:26;;;;;;;2.80;1.00;;;13.80;50.90;;;;;;4965885;28;20441;-78
2021/05/06 10:34:55;;;;;;;2.80;1.40;;;13.80;49.90;;;;;;4958313;28;20475;-78
2021/05/06 10:37:31;;;;;;;1.40;1.30;;;13.80;48.40;;;;;;4991933;28;20511;-78
2021/05/06 10:39:58;;;;;;;3.33;1.33;;;13.80;50.70;;;;;;4992289;28;20927;-78
2021/05/06 10:42:30;;;;;;;4.10;3.03;;;13.70;51.40;;;;;;4943448;28;20478;-79
2021/05/06 10:44:58;;;;;;;6.50;2.70;;;13.70;49.20;;;;;;4962499;28;20517;-79
2021/05/06 10:47:43;;;;;;;4.50;3.23;;;13.70;48.40;;;;;;4972801;28;20553;-78
2021/05/06 10:50:20;;;;;;;2.90;2.00;;;13.70;50.20;;;;;;4974668;28;20441;-78
2021/05/06 10:52:52;;;;;;;1.50;1.40;;;13.80;50.60;;;;;;4988860;28;20466;-78
2021/05/06 10:55:40;;;;;;;1.63;1.50;;;13.80;50.20;;;;;;4955683;28;20438;-79
2021/05/06 10:58:22;;;;;;;1.93;1.30;;;13.80;51.00;;;;;;4974012;28;20498;-78
2021/05/06 11:01:04;;;;;;;3.33;1.30;;;13.90;50.60;;;;;;4974946;28;20966;-78
2021/05/06 11:03:35;;;;;;;1.97;1.80;;;13.80;49.60;;;;;;4962987;28;20469;-78
2021/05/06 11:06:02;;;;;;;2.00;1.27;;;13.70;52.10;;;;;;4975231;28;21033;-79
2021/05/06 11:08:31;;;;;;;1.80;1.30;;;13.60;52.50;;;;;;4992171;28;20875;-79
2021/05/06 11:11:01;;;;;;;1.37;1.20;;;13.60;51.80;;;;;;4983744;28;20466;-79
2021/05/06 11:13:48;;;;;;;1.90;1.50;;;13.70;51.20;;;;;;4961500;28;20478;-78
2021/05/06 11:16:18;;;;;;;2.70;1.53;;;13.70;52.30;;;;;;4982961;28;20556;-78
2021/05/06 11:18:47;;;;;;;4.53;1.30;;;13.60;52.10;;;;;;4973981;28;21018;-78
2021/05/06 11:21:33;;;;;;;4.20;1.27;;;13.60;51.80;;;;;;4965388;28;20979;-79
2021/05/06 11:24:25;;;;;;;6.20;1.80;;;13.50;52.20;;;;;;4973061;28;21054;-78
2021/05/06 11:27:12;;;;;;;4.50;1.30;;;13.70;50.20;;;;;;4985571;28;20469;-79
2021/05/06 11:29:41;;;;;;;1.60;1.10;;;13.70;51.20;;;;;;4974871;28;20470;-79
2021/05/06 11:32:24;;;;;;;3.23;1.30;;;13.70;50.10;;;;;;4975195;28;20442;-78
2021/05/06 11:34:54;;;;;;;1.87;1.10;;;13.70;51.40;;;;;;4974574;28;20560;-79
2021/05/06 11:37:29;;;;;;;1.20;0.80;;;13.70;49.40;;;;;;4991592;28;20509;-78
2021/05/06 11:40:00;;;;;;;3.97;1.60;;;13.70;49.20;;;;;;4993506;28;20422;-78
2021/05/06 11:42:27;;;;;;;3.50;1.30;;;13.60;51.60;;;;;;4994871;28;20442;-78
2021/05/06 11:45:23;;;;;;;2.70;1.70;;;13.60;51.40;;;;;;4978902;28;20536;-79
2021/05/06 11:47:53;;;;;;;5.93;2.67;;;13.50;51.10;;;;;;4978086;28;20449;-78
2021/05/06 11:50:21;;;;;;;2.60;1.30;;;13.50;52.50;;;;;;4995526;28;20782;-79
2021/05/06 11:52:52;;;;;;;3.60;1.97;;;13.40;51.60;;;;;;4978591;28;20519;-78
2021/05/06 11:55:30;;;;;;;5.47;1.40;;;13.40;51.80;;;;;;4978428;28;20426;-78
2021/05/06 11:57:57;;;;;;;2.80;1.40;;;13.30;54.60;;;;;;4975689;28;20454;-78
2021/05/06 12:00:28;;;;;;;2.03;1.37;;;13.20;54.80;;;;;;4976254;28;20473;-78
2021/05/06 12:03:08;;;;;;;8.47;1.70;;;13.20;54.70;;;;;;4978586;28;21037;-78
2021/05/06 12:05:51;;;;;;;4.27;1.73;;;13.20;56.30;;;;;;4990078;28;20437;-79
2021/05/06 12:08:22;;;;;;;5.17;1.80;;;13.30;53.00;;;;;;4993746;28;20466;-79
2021/05/06 12:10:49;;;;;;;1.97;1.27;;;13.20;54.60;;;;;;4994605;28;20435;-79
2021/05/06 12:13:17;;;;;;;5.90;1.67;;;13.30;54.20;;;;;;4995236;28;20835;-79
2021/05/06 12:15:44;;;;;;;4.30;1.60;;;13.30;56.30;;;;;;4995780;28;21038;-79
2021/05/06 12:18:28;;;;;;;10.07;2.20;;;13.10;55.40;;;;;;4994657;28;20464;-79
2021/05/06 12:20:57;;;;;;;5.73;2.07;;;12.90;57.20;;;;;;4995118;28;20536;-80
2021/05/06 12:23:25;;;;;;;5.43;1.60;;;13.10;57.40;;;;;;4995720;28;20458;-79
2021/05/06 12:25:52;;;;;;;20.07;2.80;;;13.00;57.30;;;;;;4995446;28;20967;-79
2021/05/06 12:28:21;;;;;;;3.90;1.80;;;13.20;60.30;;;;;;4993322;28;20963;-78
2021/05/06 12:30:47;;;;;;;8.83;2.23;;;13.20;57.50;;;;;;4977992;28;20422;-79
2021/05/06 12:33:28;;;;;;;7.00;1.50;;;13.20;59.40;;;;;;4998871;28;20472;-79
2021/05/06 12:35:55;;;;;;;2.70;2.07;;;13.20;59.30;;;;;;4984324;28;20482;-79
2021/05/06 12:38:27;;;;;;;6.37;2.30;;;13.20;60.70;;;;;;4976422;28;20466;-79
2021/05/06 12:40:54;;;;;;;5.60;2.30;;;13.00;60.30;;;;;;4986025;28;20533;-79
2021/05/06 12:43:28;;;;;;;6.50;1.80;;;13.10;63.60;;;;;;4969156;28;21062;-79
2021/05/06 12:46:10;;;;;;;2.63;2.10;;;13.20;60.70;;;;;;4994870;28;20797;-78
2021/05/06 12:48:42;;;;;;;3.43;1.60;;;13.30;59.20;;;;;;4989777;28;20485;-79
2021/05/06 12:51:11;;;;;;;3.30;2.03;;;13.30;58.90;;;;;;4986860;28;20906;-78
2021/05/06 12:54:00;;;;;;;3.47;2.17;;;13.20;59.80;;;;;;4988816;28;20525;-79
2021/05/06 12:56:41;;;;;;;3.13;1.67;;;13.10;57.40;;;;;;4966578;28;20520;-78
2021/05/06 12:59:27;;;;;;;3.67;1.90;;;13.00;59.00;;;;;;4994415;28;20883;-78
2021/05/06 13:02:06;;;;;;;5.60;2.10;;;13.00;57.00;;;;;;4993756;28;20867;-78
2021/05/06 13:04:47;;;;;;;2.27;1.40;;;13.00;58.00;;;;;;4982068;28;20457;-79
2021/05/06 13:07:15;;;;;;;2.40;1.80;;;13.00;58.10;;;;;;4993665;28;20548;-78
2021/05/06 13:09:44;;;;;;;3.50;1.70;;;13.10;58.90;;;;;;4993311;28;20481;-78
2021/05/06 13:12:25;;;;;;;2.10;1.80;;;12.90;59.30;;;;;;4981016;28;20469;-79
2021/05/06 13:14:59;;;;;;;4.50;2.77;;;12.80;61.20;;;;;;4974660;28;20530;-79
2021/05/06 13:17:36;;;;;;;1.80;1.53;;;12.80;61.90;;;;;;4994286;28;20544;-79
2021/05/06 13:20:22;;;;;;;3.13;1.80;;;12.70;61.10;;;;;;4992649;28;20931;-79
2021/05/06 13:23:10;;;;;;;4.70;1.60;;;12.70;61.30;;;;;;4993482;28;20463;-79
2021/05/06 13:25:45;;;;;;;3.00;1.83;;;12.60;61.00;;;;;;4974682;28;20470;-78
2021/05/06 13:28:17;;;;;;;2.80;1.80;;;12.60;61.50;;;;;;4974109;28;20529;-79
2021/05/06 13:30:45;;;;;;;1.77;1.40;;;12.70;58.10;;;;;;4993973;28;20950;-78
2021/05/06 13:33:14;;;;;;;1.57;1.17;;;12.70;59.60;;;;;;4993318;28;20462;-78
2021/05/06 13:36:04;;;;;;;3.17;1.90;;;12.70;60.50;;;;;;4978001;28;20484;-78
2021/05/06 13:39:23;;;;;;;5.87;1.70;;;12.70;61.00;;;;;;4984738;28;20480;-78
2021/05/06 13:41:50;;;;;;;2.47;1.50;;;12.80;59.50;;;;;;4933673;29;20488;-79
2021/05/06 13:44:19;;;;;;;2.50;1.57;;;12.80;60.60;;;;;;4978793;28;21006;-78
2021/05/06 13:46:54;;;;;;;2.70;2.20;;;12.70;60.10;;;;;;4993792;28;20453;-78
2021/05/06 13:49:25;;;;;;;3.00;1.60;;;12.60;59.90;;;;;;4978024;28;20832;-79
2021/05/06 13:51:53;;;;;;;1.90;1.20;;;12.50;61.20;;;;;;4992036;28;20540;-79
2021/05/06 13:54:23;;;;;;;5.07;2.10;;;12.60;63.10;;;;;;4962185;28;20865;-79
2021/05/06 13:56:50;;;;;;;3.90;1.80;;;12.50;65.50;;;;;;4974253;28;20493;-78
2021/05/06 13:59:16;;;;;;;6.33;1.73;;;12.50;65.10;;;;;;4973224;28;21027;-78
2021/05/06 14:01:44;;;;;;;3.10;2.10;;;12.50;66.90;;;;;;4974010;28;20423;-78
2021/05/06 14:04:14;;;;;;;2.63;1.70;;;12.40;68.70;;;;;;4974433;28;20466;-79
2021/05/06 14:06:40;;;;;;;2.57;1.90;;;12.40;68.70;;;;;;4967024;28;20530;-79
2021/05/06 14:09:14;;;;;;;9.03;4.07;;;12.40;72.50;;;;;;4973446;28;20562;-78
2021/05/06 14:11:40;;;;;;;6.30;3.30;;;12.20;68.20;;;;;;4983127;28;20453;-79
2021/05/06 14:14:07;;;;;;;10.37;2.00;;;12.10;71.10;;;;;;4975849;28;20541;-79
2021/05/06 14:16:34;;;;;;;2.00;1.60;;;12.00;71.30;;;;;;4956271;28;20881;-78
2021/05/06 14:19:01;;;;;;;6.33;2.27;;;11.90;80.40;;;;;;4989235;28;20465;-78
2021/05/06 14:21:29;;;;;;;4.77;2.33;;;11.90;80.00;;;;;;4971911;28;20446;-79
2021/05/06 14:23:55;;;;;;;6.07;2.03;;;11.90;84.60;;;;;;4974907;28;20470;-78
2021/05/06 14:26:22;;;;;;;1.73;1.63;;;11.90;82.70;;;;;;4973401;28;20458;-79
2021/05/06 14:28:49;;;;;;;3.37;1.83;;;11.90;81.20;;;;;;4986763;28;20549;-78
2021/05/06 14:31:15;;;;;;;2.63;1.87;;;11.80;80.90;;;;;;4992699;28;20429;-78
2021/05/06 14:33:42;;;;;;;4.20;2.10;;;11.90;80.70;;;;;;4961910;28;20490;-78
2021/05/06 14:36:10;;;;;;;4.00;1.80;;;11.90;78.50;;;;;;4972816;28;20528;-78
2021/05/06 14:38:38;;;;;;;3.63;1.40;;;11.80;77.90;;;;;;4980289;28;20536;-78
2021/05/06 14:41:09;;;;;;;3.20;2.00;;;11.80;79.20;;;;;;4955754;28;20545;-79
2021/05/06 14:43:36;;;;;;;2.07;1.80;;;11.70;80.70;;;;;;4980157;28;20525;-78
2021/05/06 14:46:03;;;;;;;3.00;1.90;;;11.60;79.20;;;;;;4977622;28;20973;-78
2021/05/06 14:48:30;;;;;;;3.40;2.23;;;11.60;79.90;;;;;;4972800;28;20500;-78
2021/05/06 14:50:57;;;;;;;1.93;1.60;;;11.60;79.80;;;;;;4976521;28;20481;-78
2021/05/06 14:53:24;;;;;;;3.33;2.20;;;11.50;81.00;;;;;;4974130;28;20473;-78
2021/05/06 14:55:51;;;;;;;4.00;2.20;;;11.40;83.00;;;;;;4990985;28;20573;-78
2021/05/06 14:58:17;;;;;;;2.23;1.97;;;11.30;85.40;;;;;;4991212;28;20477;-78
2021/05/06 15:00:44;;;;;;;3.83;2.53;;;11.20;87.20;;;;;;4993956;28;20509;-81
2021/05/06 15:03:10;;;;;;;3.50;2.43;;;11.10;94.60;;;;;;5017217;28;20528;-85
2021/05/06 15:05:37;;;;;;;4.20;2.97;;;10.90;97.60;;;;;;5016773;28;20501;-83
2021/05/06 15:08:04;;;;;;;5.53;2.27;;;10.80;95.80;;;;;;4993626;28;20457;-82
2021/05/06 15:10:31;;;;;;;4.97;2.97;;;10.70;93.60;;;;;;5006920;28;20429;-82
2021/05/06 15:12:59;;;;;;;4.90;2.70;;;10.60;93.30;;;;;;4998862;28;20502;-81
2021/05/06 15:15:25;;;;;;;4.30;3.03;;;10.60;95.10;;;;;;4977236;28;20434;-82
2021/05/06 15:17:54;;;;;;;3.73;2.20;;;10.70;97.70;;;;;;4975433;28;20544;-81
2021/05/06 15:20:21;;;;;;;4.60;2.63;;;10.60;99.90;;;;;;4983554;28;20491;-81
2021/05/06 15:22:49;;;;;;;6.57;2.60;;;10.50;99.90;;;;;;4983330;28;20574;-80
2021/05/06 15:25:24;;;;;;;3.33;2.60;;;10.40;99.90;;;;;;4997119;28;20433;-80
2021/05/06 15:27:51;;;;;;;5.70;3.53;;;10.40;99.90;;;;;;4984333;28;20466;-80
2021/05/06 15:30:22;;;;;;;2.73;2.53;;;10.50;99.90;;;;;;4962395;28;20469;-80
2021/05/06 15:32:49;;;;;;;6.33;2.80;;;10.40;99.90;;;;;;4989865;28;20541;-80
2021/05/06 15:35:17;;;;;;;4.37;2.90;;;10.40;99.90;;;;;;4991999;28;20438;-80
2021/05/06 15:37:52;;;;;;;3.93;2.70;;;10.40;99.90;;;;;;4988659;28;20482;-81
2021/05/06 15:40:18;;;;;;;5.70;3.73;;;10.50;99.90;;;;;;4998715;28;20465;-81
2021/05/06 15:42:46;;;;;;;4.17;3.17;;;10.50;99.90;;;;;;4966453;28;20464;-80
2021/05/06 15:45:13;;;;;;;7.93;3.85;;;10.50;99.90;;;;;;4999126;28;20458;-80
2021/05/06 15:47:39;;;;;;;5.93;3.23;;;10.40;99.90;;;;;;4979422;28;20660;-80
2021/05/06 15:50:09;;;;;;;4.27;3.77;;;10.40;99.90;;;;;;4976217;28;20460;-80
2021/05/06 15:52:36;;;;;;;3.90;3.23;;;10.40;99.90;;;;;;4979100;28;20462;-80
2021/05/06 15:55:09;;;;;;;5.17;4.40;;;10.50;99.90;;;;;;4960076;28;20422;-80
2021/05/06 15:57:37;;;;;;;5.97;4.38;;;10.60;99.90;;;;;;4994115;28;20483;-81
2021/05/06 16:00:06;;;;;;;5.72;4.03;;;10.50;99.90;;;;;;4997505;28;20254;-80
2021/05/06 16:02:40;;;;;;;4.70;3.70;;;10.50;99.90;;;;;;4972414;28;20195;-81
2021/05/06 16:05:11;;;;;;;6.82;3.97;;;10.50;99.90;;;;;;4971134;28;20225;-81
2021/05/06 16:07:38;;;;;;;5.57;3.75;;;10.40;99.90;;;;;;4996697;28;20237;-80
2021/05/06 16:10:06;;;;;;;4.43;4.03;;;10.40;99.90;;;;;;4979681;28;20195;-81
2021/05/06 16:12:33;;;;;;;6.03;3.40;;;10.30;99.90;;;;;;4975500;28;20206;-81
2021/05/06 16:15:00;;;;;;;9.18;3.58;;;10.30;99.90;;;;;;4981529;28;20972;-81
2021/05/06 16:17:26;;;;;;;4.55;3.50;;;10.30;99.90;;;;;;4994680;28;20298;-80
2021/05/06 16:19:56;;;;;;;3.95;3.55;;;10.30;99.90;;;;;;4994013;28;20266;-80